Terminal Aerodrome Forecast
Issued by NWS Charleston, WV

Home | Current Version | Previous Version | Text Only | Print | Product List | Glossary On
Versions: 1 2 3 4 5 6 7 8 9 10 11 12 13 14 15 16 17 18 19 20 21 22 23 24 25 26
000
FTUS41 KRLX 261733
TAFBKW
TAF
KBKW 261733Z 2618/2718 35005KT P6SM BKN150
     FM262300 02003KT P6SM -RA OVC035
     FM270200 03004KT 5SM -RA BR OVC035
     FM270400 05003KT 3SM -RA BR OVC015
     FM270800 VRB03KT 3SM -RA BR OVC006
     FM271400 30004KT P6SM BKN015
     FM271700 30006KT P6SM BKN040=

USA.gov is the U.S. government's official web portal to all federal, state and local government web resources and services.